createdAt,value
2017-08-09T00:01:40.372Z,78.30
2017-08-09T00:04:07.852Z,78.00
2017-08-09T00:06:36.088Z,77.80
2017-08-09T00:09:03.567Z,77.70
2017-08-09T00:11:31.023Z,77.60
2017-08-09T00:13:58.507Z,77.20
2017-08-09T00:16:26.747Z,76.60
2017-08-09T00:18:54.215Z,76.60
2017-08-09T00:21:21.692Z,76.70
2017-08-09T00:23:49.156Z,77.00
2017-08-09T00:26:17.397Z,77.20
2017-08-09T00:28:44.864Z,76.30
2017-08-09T00:31:12.340Z,76.10
2017-08-09T00:33:39.800Z,75.80
2017-08-09T00:36:07.269Z,75.80
2017-08-09T00:38:35.496Z,76.70
2017-08-09T00:41:02.977Z,76.50
2017-08-09T00:43:30.444Z,75.00
2017-08-09T00:45:57.933Z,75.00
2017-08-09T00:48:25.408Z,75.00
2017-08-09T00:50:52.897Z,75.00
2017-08-09T00:53:20.648Z,74.50
2017-08-09T00:55:48.116Z,74.70
2017-08-09T00:58:15.587Z,74.90
2017-08-09T01:00:43.071Z,75.10
2017-08-09T01:03:11.299Z,75.20
2017-08-09T01:05:39.580Z,75.60
2017-08-09T01:08:07.055Z,75.50
2017-08-09T01:10:34.532Z,75.80
2017-08-09T01:13:02.016Z,76.10
2017-08-09T01:15:30.240Z,76.70
2017-08-09T01:17:57.710Z,76.70
2017-08-09T01:20:25.183Z,77.00
2017-08-09T01:22:52.666Z,77.00
2017-08-09T01:25:20.908Z,77.00
2017-08-09T01:27:48.385Z,77.00
2017-08-09T01:30:15.853Z,77.20
2017-08-09T01:32:44.088Z,76.30
2017-08-09T01:35:11.556Z,76.10
2017-08-09T01:37:39.033Z,76.40
2017-08-09T01:40:06.497Z,76.20
2017-08-09T01:42:34.738Z,76.20
2017-08-09T01:45:02.201Z,76.20
2017-08-09T01:47:29.670Z,75.80
2017-08-09T01:49:57.135Z,76.10
2017-08-09T01:52:24.625Z,76.40
2017-08-09T01:54:52.087Z,76.60
2017-08-09T01:57:19.551Z,76.70
2017-08-09T01:59:47.028Z,76.80
2017-08-09T02:02:14.488Z,77.00
2017-08-09T02:04:41.983Z,77.00
2017-08-09T02:07:09.495Z,76.70
2017-08-09T02:09:36.959Z,77.00
2017-08-09T02:12:04.437Z,77.10
2017-08-09T02:14:31.900Z,77.30
2017-08-09T02:16:59.383Z,77.20
2017-08-09T02:19:26.872Z,77.50
2017-08-09T02:21:54.331Z,77.10
2017-08-09T02:24:21.807Z,76.30
2017-08-09T02:26:49.275Z,75.80
2017-08-09T02:29:16.752Z,76.50
2017-08-09T02:31:44.218Z,76.70
2017-08-09T02:34:11.692Z,78.10
2017-08-09T02:36:39.157Z,78.10
2017-08-09T02:39:07.401Z,78.20
2017-08-09T02:41:34.872Z,78.10
2017-08-09T02:44:02.365Z,78.20
2017-08-09T02:46:30.589Z,78.90
2017-08-09T02:48:58.064Z,78.90
2017-08-09T02:51:25.540Z,79.10
2017-08-09T02:53:53.766Z,79.10
2017-08-09T02:56:21.255Z,79.10
2017-08-09T02:58:48.727Z,79.10
2017-08-09T03:01:16.197Z,79.10
2017-08-09T03:03:44.431Z,79.60
2017-08-09T03:06:11.899Z,79.60
2017-08-09T03:08:39.359Z,79.80
2017-08-09T03:11:06.843Z,80.00
2017-08-09T03:13:35.076Z,80.60
2017-08-09T03:16:02.552Z,80.50
2017-08-09T03:18:30.015Z,80.40
2017-08-09T03:20:57.495Z,80.30
2017-08-09T03:23:25.733Z,81.00
2017-08-09T03:25:53.213Z,80.90
2017-08-09T03:28:20.675Z,80.70
2017-08-09T03:30:48.145Z,81.00
2017-08-09T03:36:09.484Z,81.30
2017-08-09T03:38:37.715Z,81.40
2017-08-09T03:41:05.189Z,81.40
2017-08-09T03:43:32.660Z,81.30
2017-08-09T03:46:00.138Z,81.70
2017-08-09T03:48:28.373Z,82.50
2017-08-09T03:50:56.701Z,82.50
2017-08-09T03:53:24.181Z,83.10
2017-08-09T03:55:51.652Z,83.20
2017-08-09T03:58:19.128Z,83.40
2017-08-09T04:00:46.591Z,83.50
2017-08-09T04:03:14.068Z,83.80
2017-08-09T04:05:41.533Z,84.20
2017-08-09T04:08:09.771Z,84.50
2017-08-09T04:10:37.232Z,84.50
2017-08-09T04:13:04.704Z,84.80
2017-08-09T04:15:32.163Z,85.00
2017-08-09T04:17:59.631Z,85.10
2017-08-09T04:20:27.099Z,84.70
2017-08-09T04:22:54.579Z,85.60
2017-08-09T04:25:22.051Z,85.80
2017-08-09T04:27:49.532Z,85.60
2017-08-09T04:30:17.000Z,85.30
2017-08-09T04:32:44.476Z,85.10
2017-08-09T04:35:11.941Z,85.30
2017-08-09T04:37:39.417Z,85.20
2017-08-09T04:40:07.634Z,85.00
2017-08-09T04:42:35.115Z,85.00
2017-08-09T04:45:02.576Z,84.80
2017-08-09T04:47:30.047Z,84.80
2017-08-09T04:49:57.524Z,84.70
2017-08-09T04:52:25.796Z,84.60
2017-08-09T04:54:53.264Z,84.30
2017-08-09T04:57:21.491Z,84.00
2017-08-09T04:59:48.978Z,83.90
2017-08-09T05:02:16.447Z,83.70
2017-08-09T05:04:44.683Z,83.70
2017-08-09T05:07:12.143Z,83.70
2017-08-09T05:09:39.623Z,84.00
2017-08-09T05:12:07.094Z,83.70
2017-08-09T05:14:35.335Z,83.30
2017-08-09T05:17:02.796Z,83.20
2017-08-09T05:19:30.291Z,83.00
2017-08-09T05:21:58.539Z,82.60
2017-08-09T05:24:26.020Z,82.50
2017-08-09T05:26:54.265Z,82.70
2017-08-09T05:29:21.726Z,82.70
2017-08-09T05:31:49.186Z,82.60
2017-08-09T05:34:16.676Z,82.80
2017-08-09T05:36:44.912Z,83.00
2017-08-09T05:39:12.380Z,82.80
2017-08-09T05:41:39.851Z,82.70
2017-08-09T05:44:07.320Z,82.30
2017-08-09T05:46:34.783Z,82.30
2017-08-09T05:49:03.017Z,82.50
2017-08-09T05:51:30.488Z,82.30
2017-08-09T05:53:57.956Z,82.00
2017-08-09T05:56:25.428Z,82.00
2017-08-09T05:58:52.891Z,82.10
2017-08-09T06:01:21.126Z,83.00
2017-08-09T06:03:48.592Z,82.50
2017-08-09T06:06:16.071Z,82.50
2017-08-09T06:08:43.541Z,82.50
2017-08-09T06:11:11.789Z,81.90
2017-08-09T06:13:39.248Z,81.80
2017-08-09T06:16:06.720Z,81.80
2017-08-09T06:18:34.189Z,81.70
2017-08-09T06:21:02.438Z,81.70
2017-08-09T06:23:29.900Z,81.10
2017-08-09T06:25:57.367Z,80.00
2017-08-09T06:28:24.832Z,79.40
2017-08-09T06:30:52.305Z,79.70
2017-08-09T06:33:20.539Z,79.50
2017-08-09T06:35:48.007Z,79.40
2017-08-09T06:38:15.480Z,79.60
2017-08-09T06:40:42.976Z,79.10
2017-08-09T06:43:10.441Z,79.10
2017-08-09T06:45:37.937Z,78.50
2017-08-09T06:48:05.405Z,78.50
2017-08-09T06:50:32.871Z,78.00
2017-08-09T06:53:00.346Z,77.20
2017-08-09T06:55:28.572Z,76.20
2017-08-09T06:57:56.049Z,76.10
2017-08-09T07:00:23.512Z,75.70
2017-08-09T07:02:50.997Z,75.70
2017-08-09T07:05:19.224Z,74.80
2017-08-09T07:07:46.695Z,74.80
2017-08-09T07:10:14.211Z,74.70
2017-08-09T07:12:42.443Z,73.80
2017-08-09T07:15:09.911Z,73.70
2017-08-09T07:17:37.415Z,74.80
2017-08-09T07:20:04.863Z,73.60
2017-08-09T07:22:32.356Z,73.10
2017-08-09T07:24:59.823Z,72.60
2017-08-09T07:27:27.288Z,71.90
2017-08-09T07:29:54.772Z,72.00
2017-08-09T07:32:23.009Z,72.10
2017-08-09T07:34:50.481Z,71.30
2017-08-09T07:37:17.975Z,72.10
2017-08-09T07:39:46.218Z,69.30
2017-08-09T07:42:13.685Z,69.30
2017-08-09T07:44:41.163Z,69.10
2017-08-09T07:47:09.391Z,68.70
2017-08-09T07:49:36.868Z,68.60
2017-08-09T07:52:04.343Z,69.10
2017-08-09T07:54:31.816Z,67.70
2017-08-09T07:57:00.055Z,68.00
2017-08-09T07:59:27.535Z,67.90
2017-08-09T08:01:55.055Z,66.30
2017-08-09T08:04:22.532Z,66.10
2017-08-09T08:06:50.003Z,66.20
2017-08-09T08:09:17.475Z,66.60
2017-08-09T08:11:44.951Z,65.60
2017-08-09T08:14:13.184Z,63.50
2017-08-09T08:16:40.688Z,63.50
2017-08-09T08:19:08.914Z,65.30
2017-08-09T08:21:36.392Z,65.20
2017-08-09T08:24:03.864Z,64.60
2017-08-09T08:26:32.120Z,64.80
2017-08-09T08:28:59.591Z,64.80
2017-08-09T08:31:27.068Z,65.50
2017-08-09T08:33:55.300Z,63.20
2017-08-09T08:36:22.776Z,63.20
2017-08-09T08:38:50.254Z,63.90
2017-08-09T08:41:18.496Z,63.00
2017-08-09T08:43:45.957Z,63.00
2017-08-09T08:46:13.428Z,61.60
2017-08-09T08:48:40.886Z,62.10
2017-08-09T08:51:08.388Z,62.80
2017-08-09T08:53:35.860Z,62.20
2017-08-09T08:56:03.339Z,63.20
2017-08-09T08:58:30.812Z,63.20
2017-08-09T09:00:58.292Z,62.80
2017-08-09T09:03:26.534Z,64.60
2017-08-09T09:05:53.992Z,63.80
2017-08-09T09:08:21.496Z,62.10
2017-08-09T09:10:49.731Z,61.30
2017-08-09T09:13:17.246Z,61.20
2017-08-09T09:15:44.710Z,61.30
2017-08-09T09:18:12.188Z,61.50
2017-08-09T09:20:39.646Z,61.00
2017-08-09T09:23:07.151Z,60.40
2017-08-09T09:25:36.991Z,60.90
2017-08-09T09:28:04.484Z,59.20
2017-08-09T09:30:31.956Z,60.00
2017-08-09T09:32:59.430Z,58.70
2017-08-09T09:35:29.585Z,59.30
2017-08-09T09:37:57.823Z,58.30
2017-08-09T09:40:25.280Z,58.80
2017-08-09T09:42:52.756Z,59.20
2017-08-09T09:45:20.999Z,57.00
2017-08-09T09:47:48.583Z,56.60
2017-08-09T09:50:16.050Z,56.00
2017-08-09T09:52:43.523Z,56.60
2017-08-09T09:55:10.993Z,56.30
2017-08-09T09:57:38.475Z,56.90
2017-08-09T10:00:06.197Z,56.40
2017-08-09T10:02:33.671Z,58.60
2017-08-09T10:05:01.150Z,56.70
2017-08-09T10:07:28.625Z,56.30
2017-08-09T10:09:56.097Z,56.90
2017-08-09T10:12:23.567Z,56.50
2017-08-09T10:14:51.044Z,58.10
2017-08-09T10:17:18.516Z,56.60
2017-08-09T10:19:46.763Z,54.60
2017-08-09T10:22:14.225Z,54.60
2017-08-09T10:24:41.728Z,55.00
2017-08-09T10:27:09.199Z,53.80
2017-08-09T10:29:36.670Z,54.60
2017-08-09T10:32:04.139Z,54.80
2017-08-09T10:34:31.617Z,55.30
2017-08-09T10:36:59.087Z,55.30
2017-08-09T10:39:27.334Z,55.30
2017-08-09T10:41:54.813Z,55.20
2017-08-09T10:44:22.334Z,55.00
2017-08-09T10:46:49.814Z,55.70
2017-08-09T10:49:17.289Z,54.90
2017-08-09T10:51:44.763Z,55.00
2017-08-09T10:54:13.010Z,56.20
2017-08-09T10:56:40.467Z,56.20
2017-08-09T10:59:07.948Z,55.60
2017-08-09T11:01:35.421Z,55.00
2017-08-09T11:04:03.673Z,56.60
2017-08-09T11:06:31.131Z,56.70
2017-08-09T11:08:58.622Z,55.60
2017-08-09T11:11:26.087Z,56.40
2017-08-09T11:13:53.570Z,56.40
2017-08-09T11:16:21.040Z,58.00
2017-08-09T11:18:48.508Z,57.00
2017-08-09T11:21:15.982Z,56.20
2017-08-09T11:23:43.464Z,55.60
2017-08-09T11:26:11.700Z,54.30
2017-08-09T11:28:39.187Z,54.30
2017-08-09T11:31:07.428Z,55.00
2017-08-09T11:33:34.892Z,54.50
2017-08-09T11:36:02.372Z,55.00
2017-08-09T11:38:29.837Z,55.30
2017-08-09T11:40:58.081Z,55.50
2017-08-09T11:43:25.556Z,55.40
2017-08-09T11:45:53.031Z,54.50
2017-08-09T11:48:20.489Z,55.40
2017-08-09T11:50:48.737Z,54.50
2017-08-09T11:53:16.205Z,53.90
2017-08-09T11:55:43.675Z,53.00
2017-08-09T11:58:11.147Z,56.70
2017-08-09T12:00:39.388Z,54.70
2017-08-09T12:03:06.843Z,54.60
2017-08-09T12:05:34.308Z,53.00
2017-08-09T12:08:01.771Z,50.10
2017-08-09T12:10:29.242Z,51.60
2017-08-09T12:12:56.701Z,51.70
2017-08-09T12:15:24.177Z,51.40
2017-08-09T12:17:52.409Z,51.60
2017-08-09T12:20:19.893Z,51.60
2017-08-09T12:22:47.351Z,50.60
2017-08-09T12:25:14.827Z,50.80
2017-08-09T12:27:43.064Z,49.30
2017-08-09T12:30:10.536Z,49.20
2017-08-09T12:32:38.011Z,50.30
2017-08-09T12:35:06.249Z,50.50
2017-08-09T12:37:33.714Z,50.50
2017-08-09T12:40:01.187Z,50.60
2017-08-09T12:42:28.680Z,49.70
2017-08-09T12:44:56.151Z,50.90
2017-08-09T12:47:23.622Z,50.40
2017-08-09T12:49:51.088Z,50.00
2017-08-09T12:52:18.558Z,49.10
2017-08-09T12:54:46.036Z,48.80
2017-08-09T12:57:13.501Z,49.50
2017-08-09T12:59:40.984Z,49.00
2017-08-09T13:02:09.216Z,49.40
2017-08-09T13:04:36.687Z,49.30
2017-08-09T13:07:04.156Z,48.30
2017-08-09T13:09:31.622Z,48.50
2017-08-09T13:11:59.847Z,47.90
2017-08-09T13:14:27.333Z,47.80
2017-08-09T13:16:54.792Z,48.20
2017-08-09T13:19:22.269Z,48.50
2017-08-09T13:21:49.743Z,48.00
2017-08-09T13:24:17.971Z,46.30
2017-08-09T13:26:45.450Z,46.40
2017-08-09T13:29:12.916Z,48.00
2017-08-09T13:31:40.392Z,46.20
2017-08-09T13:34:07.857Z,45.60
2017-08-09T13:36:36.094Z,46.70
2017-08-09T13:39:03.565Z,46.60
2017-08-09T13:41:31.045Z,47.70
2017-08-09T13:43:58.534Z,48.20
2017-08-09T13:46:26.777Z,47.00
2017-08-09T13:48:54.235Z,46.90
2017-08-09T13:51:21.716Z,45.50
2017-08-09T13:53:49.193Z,47.10
2017-08-09T13:56:17.428Z,45.60
2017-08-09T13:58:46.719Z,45.50
2017-08-09T14:01:14.191Z,46.50
2017-08-09T14:03:41.669Z,46.70
2017-08-09T14:06:09.147Z,47.00
2017-08-09T14:08:37.381Z,45.50
2017-08-09T14:11:04.859Z,45.40
2017-08-09T14:13:32.348Z,45.90
2017-08-09T14:16:00.583Z,45.50
2017-08-09T14:18:28.044Z,45.40
2017-08-09T14:20:55.552Z,46.10
2017-08-09T14:23:23.024Z,46.00
2017-08-09T14:25:50.513Z,45.00
2017-08-09T14:28:17.983Z,45.20
2017-08-09T14:30:45.447Z,46.50
2017-08-09T14:33:12.922Z,45.70
2017-08-09T14:35:40.724Z,45.20
2017-08-09T14:38:08.216Z,45.40
2017-08-09T14:40:35.692Z,44.90
2017-08-09T14:43:03.167Z,46.20
2017-08-09T14:45:31.424Z,45.60
2017-08-09T14:47:58.907Z,45.50
2017-08-09T14:50:27.143Z,47.70
2017-08-09T14:52:54.643Z,47.70
2017-08-09T14:55:22.879Z,46.60
2017-08-09T14:57:50.377Z,46.50
2017-08-09T15:00:17.847Z,46.70
2017-08-09T15:02:45.316Z,47.10
2017-08-09T15:05:13.096Z,46.40
2017-08-09T15:07:40.571Z,47.60
2017-08-09T15:10:08.046Z,47.00
2017-08-09T15:12:35.528Z,47.10
2017-08-09T15:15:03.759Z,46.80
2017-08-09T15:17:31.245Z,46.70
2017-08-09T15:19:58.709Z,45.10
2017-08-09T15:22:27.105Z,44.50
2017-08-09T15:24:54.575Z,44.40
2017-08-09T15:27:22.810Z,45.00
2017-08-09T15:29:51.058Z,42.90
2017-08-09T15:32:18.554Z,42.90
2017-08-09T15:34:46.039Z,44.00
2017-08-09T15:37:14.284Z,42.30
2017-08-09T15:39:41.753Z,42.20
2017-08-09T15:42:09.244Z,43.90
2017-08-09T15:44:36.733Z,43.60
2017-08-09T15:47:04.200Z,42.20
2017-08-09T15:49:32.440Z,43.10
2017-08-09T15:51:59.897Z,43.10
2017-08-09T15:54:27.367Z,43.30
2017-08-09T15:56:54.880Z,44.20
2017-08-09T15:59:22.358Z,43.80
2017-08-09T16:01:49.847Z,42.70
2017-08-09T16:04:18.183Z,44.00
2017-08-09T16:06:45.660Z,41.70
2017-08-09T16:09:13.153Z,42.30
2017-08-09T16:11:40.619Z,40.40
2017-08-09T16:14:08.871Z,42.10
2017-08-09T16:16:36.340Z,42.10
2017-08-09T16:19:03.817Z,41.90
2017-08-09T16:21:32.046Z,42.00
2017-08-09T16:23:59.548Z,42.10
2017-08-09T16:26:27.003Z,42.20
2017-08-09T16:28:55.243Z,41.50
2017-08-09T16:31:22.717Z,41.50
2017-08-09T16:33:50.236Z,42.80
2017-08-09T16:36:17.720Z,41.10
2017-08-09T16:38:45.186Z,41.30
2017-08-09T16:41:12.656Z,40.40
2017-08-09T16:43:40.124Z,41.00
2017-08-09T16:46:12.649Z,42.60
2017-08-09T16:48:40.115Z,43.60
2017-08-09T16:51:07.593Z,44.30
2017-08-09T16:53:35.091Z,45.20
2017-08-09T16:56:02.568Z,45.90
2017-08-09T16:58:30.027Z,46.60
2017-08-09T17:00:57.494Z,45.70
2017-08-09T17:03:24.960Z,45.60
2017-08-09T17:05:52.440Z,45.30
2017-08-09T17:08:19.916Z,45.90
2017-08-09T17:10:47.395Z,46.20
2017-08-09T17:13:15.657Z,46.90
2017-08-09T17:15:43.114Z,46.80
2017-08-09T17:18:10.589Z,47.40
2017-08-09T17:20:38.073Z,48.20
2017-08-09T17:23:05.546Z,50.30
2017-08-09T17:25:33.013Z,49.50
2017-08-09T17:28:00.490Z,48.70
2017-08-09T17:30:27.955Z,50.00
2017-08-09T17:32:55.429Z,50.40
2017-08-09T17:35:22.882Z,48.90
2017-08-09T17:37:50.365Z,50.20
2017-08-09T17:40:18.602Z,48.60
2017-08-09T17:42:46.068Z,48.60
2017-08-09T17:45:13.540Z,49.20
2017-08-09T17:47:41.002Z,50.40
2017-08-09T17:50:09.248Z,50.40
2017-08-09T17:52:36.760Z,50.40
2017-08-09T17:55:04.215Z,51.60
2017-08-09T17:57:31.692Z,51.60
2017-08-09T17:59:59.170Z,52.60
2017-08-09T18:02:26.644Z,52.70
2017-08-09T18:04:54.125Z,52.80
2017-08-09T18:07:21.611Z,53.50
2017-08-09T18:09:49.092Z,54.10
2017-08-09T18:12:16.556Z,53.70
2017-08-09T18:14:44.034Z,53.90
2017-08-09T18:17:11.491Z,55.00
2017-08-09T18:19:38.959Z,56.00
2017-08-09T18:22:06.422Z,56.50
2017-08-09T18:24:33.905Z,57.20
2017-08-09T18:27:22.840Z,59.10
2017-08-09T18:29:50.310Z,59.10
2017-08-09T18:32:17.771Z,59.40
2017-08-09T18:34:46.047Z,60.90
2017-08-09T18:37:14.277Z,62.10
2017-08-09T18:39:41.749Z,61.30
2017-08-09T18:45:02.705Z,61.70
2017-08-09T18:47:30.974Z,63.60
2017-08-09T18:49:58.470Z,63.60
2017-08-09T18:52:25.992Z,65.50
2017-08-09T18:54:53.467Z,65.40
2017-08-09T18:57:21.702Z,67.30
2017-08-09T18:59:49.176Z,67.30
2017-08-09T19:02:16.647Z,68.00
2017-08-09T19:04:44.136Z,68.50
2017-08-09T19:07:11.605Z,68.50
2017-08-09T19:09:39.070Z,69.30
2017-08-09T19:12:06.534Z,69.20
2017-08-09T19:14:34.071Z,69.00
2017-08-09T19:17:01.541Z,70.20
2017-08-09T19:19:29.015Z,69.50
2017-08-09T19:21:56.485Z,69.50
2017-08-09T19:24:23.967Z,69.80
2017-08-09T19:26:51.427Z,70.10
2017-08-09T19:29:18.948Z,70.20
2017-08-09T19:31:46.422Z,72.00
2017-08-09T19:34:13.912Z,72.60
2017-08-09T19:36:41.375Z,72.80
2017-08-09T19:39:08.850Z,73.10
2017-08-09T19:41:37.067Z,73.10
2017-08-09T19:44:04.539Z,73.00
2017-08-09T19:46:31.999Z,73.10
2017-08-09T19:48:59.479Z,72.80
2017-08-09T19:51:26.944Z,73.80
2017-08-09T19:53:55.183Z,74.80
2017-08-09T19:56:22.655Z,74.70
2017-08-09T19:58:50.126Z,75.50
2017-08-09T20:01:17.592Z,76.00
2017-08-09T20:03:45.067Z,76.30
2017-08-09T20:06:13.332Z,75.90
2017-08-09T20:08:41.570Z,75.80
2017-08-09T20:11:09.038Z,75.80
2017-08-09T20:13:36.515Z,75.70
2017-08-09T20:16:04.342Z,75.40
2017-08-09T20:18:32.344Z,75.20
2017-08-09T20:20:59.804Z,75.30
2017-08-09T20:23:27.288Z,75.50
2017-08-09T20:25:55.593Z,75.70
2017-08-09T20:28:23.067Z,75.70
2017-08-09T20:30:50.529Z,76.20
2017-08-09T20:33:18.007Z,76.10
2017-08-09T20:35:45.473Z,75.90
2017-08-09T20:38:12.947Z,76.40
2017-08-09T20:40:41.189Z,76.60
2017-08-09T20:43:08.664Z,76.60
2017-08-09T20:45:36.487Z,76.50
2017-08-09T20:48:04.354Z,77.60
2017-08-09T20:50:31.809Z,76.80
2017-08-09T20:52:59.277Z,77.10
2017-08-09T20:55:26.744Z,76.60
2017-08-09T20:57:54.340Z,76.40
2017-08-09T21:00:22.737Z,76.30
2017-08-09T21:02:50.209Z,76.60
2017-08-09T21:05:17.723Z,77.60
2017-08-09T21:07:45.207Z,77.80
2017-08-09T21:10:12.743Z,78.10
2017-08-09T21:12:40.208Z,78.50
2017-08-09T21:15:07.688Z,78.90
2017-08-09T21:17:35.147Z,79.70
2017-08-09T21:20:02.619Z,79.60
2017-08-09T21:22:30.092Z,79.50
2017-08-09T21:24:57.932Z,79.50
2017-08-09T21:27:25.403Z,79.30
2017-08-09T21:29:52.873Z,79.30
2017-08-09T21:32:20.344Z,79.10
2017-08-09T21:34:47.920Z,79.50
2017-08-09T21:37:16.161Z,79.70
2017-08-09T21:39:43.632Z,79.70
2017-08-09T21:42:11.101Z,79.80
2017-08-09T21:44:38.581Z,80.60
2017-08-09T21:47:07.365Z,80.30
2017-08-09T21:49:35.613Z,80.40
2017-08-09T21:52:03.102Z,80.30
2017-08-09T21:54:31.339Z,80.80
2017-08-09T21:56:58.813Z,80.80
2017-08-09T21:59:26.294Z,80.50
2017-08-09T22:01:53.751Z,80.90
2017-08-09T22:04:21.223Z,80.70
2017-08-09T22:06:48.686Z,81.00
2017-08-09T22:09:16.160Z,80.60
2017-08-09T22:11:43.620Z,80.50
2017-08-09T22:14:11.097Z,80.40
2017-08-09T22:16:39.324Z,80.40
2017-08-09T22:19:06.812Z,80.40
2017-08-09T22:21:34.279Z,80.60
2017-08-09T22:24:02.519Z,81.90
2017-08-09T22:26:30.004Z,81.60
2017-08-09T22:28:57.467Z,81.30
2017-08-09T22:31:25.706Z,81.20
2017-08-09T22:33:53.167Z,81.20
2017-08-09T22:36:20.653Z,81.20
2017-08-09T22:38:48.132Z,81.00
2017-08-09T22:41:16.359Z,81.20
2017-08-09T22:43:43.841Z,81.20
2017-08-09T22:46:11.304Z,81.00
2017-08-09T22:48:38.782Z,81.20
2017-08-09T22:51:07.014Z,81.40
2017-08-09T22:53:34.520Z,81.30
2017-08-09T22:56:02.773Z,81.30
2017-08-09T22:58:30.235Z,81.20
2017-08-09T23:00:58.469Z,81.50
2017-08-09T23:03:26.286Z,81.30
2017-08-09T23:05:53.819Z,81.30
2017-08-09T23:08:21.267Z,81.50
2017-08-09T23:10:48.748Z,81.50
2017-08-09T23:13:16.214Z,81.70
2017-08-09T23:15:44.499Z,81.60
2017-08-09T23:18:12.735Z,81.70
2017-08-09T23:20:40.201Z,81.70
2017-08-09T23:23:07.692Z,81.60
2017-08-09T23:25:35.929Z,83.20
2017-08-09T23:28:03.399Z,83.20
2017-08-09T23:30:30.883Z,83.70
2017-08-09T23:32:59.110Z,83.50
2017-08-09T23:35:26.580Z,83.40
2017-08-09T23:37:54.227Z,83.40
2017-08-09T23:40:21.687Z,83.20
2017-08-09T23:42:49.204Z,83.70
2017-08-09T23:45:17.433Z,83.60
2017-08-09T23:47:44.912Z,83.60
2017-08-09T23:50:12.381Z,84.00
2017-08-09T23:52:40.629Z,84.40
2017-08-09T23:55:08.093Z,84.30
2017-08-09T23:57:35.572Z,84.40
